This is the latest recevied weather packets stored in our database for station/object KC4LZN. If no packets are shown the sender has not sent any weather packets the latest 10 day(s).
| Time | Temp. | Humidity | Pressure | Rain* | Wind** | Luminosity | Snow |
|---|---|---|---|---|---|---|---|
| 1777223654 | 26.11° C | 85% | 1012 hPa | 1.27 mm | - | 195 W/m² | - |
| 1777223350 | 25.56° C | 84% | 1012.1 hPa | 6.1 mm | - | 956 W/m² | - |
| 1777223048 | 25° C | 87% | 1012.2 hPa | 11.94 mm | - | 942 W/m² | - |
| 1777222745 | 24.44° C | 89% | 1012.6 hPa | 13.72 mm | - | 989 W/m² | - |
| 1777222442 | 23.33° C | 92% | 1012.2 hPa | 10.67 mm | - | 1072 W/m² | - |
| 1777222140 | 22.78° C | 93% | 1012.5 hPa | 10.67 mm | - | 1107 W/m² | - |
| 1777221836 | 22.78° C | 93% | 1012.6 hPa | 8.89 mm | - | 659 W/m² | - |
| 1777221532 | 22.78° C | 92% | 1012.6 hPa | 7.11 mm | - | 253 W/m² | - |
| 1777221230 | 22.78° C | 91% | 1012.8 hPa | 6.6 mm | - | 151 W/m² | - |
| 1777220926 | 25° C | 84% | 1013 hPa | 3.56 mm | - | 54 W/m² | - |
| 1777220622 | 27.22° C | 70% | 1012.7 hPa | 0 mm | - | 107 W/m² | - |
| 1777220319 | 27.78° C | 65% | 1012.4 hPa | 0 mm | - | 200 W/m² | - |
| 1777220013 | 27.78° C | 65% | 1012.4 hPa | 0 mm | - | 330 W/m² | - |
| 1777219710 | 27.22° C | 68% | 1012.6 hPa | 0 mm | - | 280 W/m² | - |
| 1777219408 | 27.22° C | 68% | 1012.6 hPa | 0 mm | - | 224 W/m² | - |
| 1777219104 | 27.22° C | 67% | 1012.6 hPa | 0 mm | - | 230 W/m² | - |
| 1777218799 | 27.22° C | 68% | 1012.7 hPa | 0 mm | - | 229 W/m² | - |
| 1777218495 | 27.22° C | 66% | 1012.3 hPa | 0 mm | - | 303 W/m² | - |
| 1777218191 | 27.78° C | 65% | 1012.6 hPa | 0 mm | - | 388 W/m² | - |
| 1777217888 | 27.78° C | 66% | 1012.6 hPa | 0 mm | - | 484 W/m² | - |
| 1777217583 | 27.78° C | 65% | 1012.5 hPa | 0 mm | - | 460 W/m² | - |
| 1777217279 | 27.78° C | 66% | 1012.5 hPa | 0 mm | - | 282 W/m² | - |
| 1777216975 | 27.22° C | 69% | 1012.6 hPa | 0 mm | - | 223 W/m² | - |
| 1777216672 | 27.22° C | 68% | 1012.5 hPa | 0 mm | - | 824 W/m² | - |
| 1777216368 | 26.67° C | 69% | 1012.7 hPa | 0 mm | - | 771 W/m² | - |
* Rain latest hour (hover to see other rain measurements)
** Current wind speed in m/s (hover to see current wind gust speed)